KMRF/MRF METAR and TAF weather

Enter ICAO airport designator
Station Type Date Time Source
KMRF METAR 2019/12/03 17:56 UTC NOAA

KMRF 031756Z AUTO 27016KT 10SM CLR 19/M07 A3019 RMK AO2 SLP198 T01891072 10189 20000 50002


Station Type Date Time Source
KMRF Decoded METAR 2019/12/03 17:56 UTC NOAA

Marfa, TX, United States (KMRF) 30-22N 104-01W 1481M
Dec 03, 2019 - 12:56 PM EST / 2019.12.03 1756 UTC
Wind: from the W (270 degrees) at 18 MPH (16 KT):0
Visibility: 10 mile(s):0
Sky conditions: clear
Temperature: 66.0 F (18.9 C)
Dew Point: 19.0 F (-7.2 C)
Relative Humidity: 16%
Pressure (altimeter): 30.19 in. Hg (1022 hPa)
Pressure tendency: 0.01 inches (0.2 hPa) higher than three hours ago
ob: KMRF 031756Z AUTO 27016KT 10SM CLR 19/M07 A3019 RMK AO2 SLP198 T01891072 10189 20000 50002
cycle: 18

Station Type Date Time Source
KMRF TAF UTC NOAA

Error!

Example: see airport list